Mason Valley, Nevada Weather observations

Data are for observation ending at time listed.
 Day   Time    Ave.   Ave.  Ave.  Vector   Max.   Stn.    Total    Solar   Ave.  
  of    of     Air    Rel.  Wind   Wind    Wind   Baro.  Precip.   Rad.    Soil  
Year   Day     Temp.  Hum.  Speed  Dir.    Gust   Pres.                    Temp. 
2014   (PST)    F      %     mph   deg.    mph     mb.     in.     W/m2     F   
------------------------------------------------------------------------------
 209   15:30   86.8    21   11.6   115     18.5   870.8    0.00      46    93.8
 209   15:40   86.2    21   10.8   125     18.8   870.7    0.00      62    94.2
 209   15:50   86.0    21   11.3   129     18.0   871.0    0.00      76    94.1
 209   16:00   85.4    26   13.9   173     23.1   871.3    0.00      78    94.0
 209   16:10   83.0    30   14.7   174     22.8   871.7    0.00      75    94.0
 209   16:20   82.2    31   16.2   180     22.1   871.8    0.00      89    94.2
 209   16:30   81.6    33   15.8   182     23.0   871.8    0.00     123    94.1
 209   16:40   81.5    34   15.3   185     22.2   871.8    0.00     163    94.0
 209   16:50   81.8    34   15.3   187     22.0   871.7    0.00     181    93.8
 209   17:00   81.9    32   15.3   196     22.3   871.7    0.00     136    93.6
 209   17:10   82.5    29   14.6   200     25.3   871.6    0.00     136    93.5
 209   17:20   83.2    29   14.2   202     22.6   871.7    0.00     155    93.3
 209   17:30   82.3    30   14.4   221     22.0   871.7    0.00     158    93.0
 209   17:40   81.3    33   13.7   215     20.9   871.7    0.00     130    93.0
 209   17:50   81.3    32   11.4   215     18.4   871.7    0.00     115    93.0
 209   18:00   81.4    31    9.9   206     16.5   871.7    0.00      97    93.0
 209   18:10   81.6    31    6.1   209     14.6   871.8    0.00      79    93.0
 209   18:20   81.7    31    6.5   182      9.7   871.8    0.00      65    92.9
 209   18:30   81.7    31    6.8   190     12.7   871.8    0.00      41    92.7
 209   18:40   81.2    33    5.8   160     11.4   871.9    0.00      27    92.6
 209   18:50   80.4    34    6.2   175     10.3   872.0    0.00      12    92.6
 209   19:00   79.8    35    5.0   181      7.9   872.1    0.00       4    92.6
 209   19:10   79.2    37    4.7   202      6.5   872.2    0.00       2    92.5
 209   19:20   78.8    38    5.9   171     11.2   872.3    0.00       1    92.5
 209   19:30   78.3    39    7.8   177     11.9   872.4    0.00       0    92.4
 209   19:40   77.8    40    9.0   178     13.6   872.4    0.00       0    92.3
 209   19:50   77.3    41    9.2   166     13.3   872.5    0.00       0    92.2
 209   20:00   77.6    36    7.1   201     12.2   872.4    0.00       0    92.1
 209   20:10   79.1    31    7.6   234     12.9   872.5    0.00       0    92.0
 209   20:20   79.1    31    7.2   220     10.2   872.5    0.00       0    91.7
 209   20:30   78.7    31    7.0   206      9.8   872.5    0.00       0    91.5
 209   20:40   78.8    33    7.1   206     10.3   872.5    0.00       0    91.2
 209   20:50   76.9    40    9.4   180     12.8   872.5    0.00       0    91.1
 209   21:00   75.6    42    8.0   179     11.7   872.4    0.00       0    91.1
 209   21:10   75.1    43    6.6   171      9.7   872.3    0.00       0    91.2
 209   21:20   74.7    44    7.6   177      9.9   872.3    0.00       0    91.1
 209   21:30   74.4    44    8.1   186     10.8   872.2    0.00       0    91.0
 209   21:40   74.2    44    6.8   172     10.4   872.3    0.00       0    90.8
 209   21:50   74.0    44    3.8   167      7.4   872.4    0.00       0    90.7
 209   22:00   73.7    45    2.7   160      4.0   872.4    0.00       0    90.5
 209   22:10   73.0    46    3.4   141      4.7   872.3    0.00       0    90.5
 209   22:20   73.0    45    3.3   163      4.9   872.4    0.00       0    90.3
 209   22:30   73.4    43    3.6   170      6.4   872.4    0.00       0    90.1
 209   22:40   74.0    41    4.4   184      7.6   872.4    0.00       0    89.9
 209   22:50   74.6    40    4.3   181      8.2   872.5    0.00       0    89.6
 209   23:00   74.4    41    4.7   164      6.3   872.4    0.00       0    89.4
 209   23:10   73.7    42    6.0   165      9.1   872.3    0.00       0    89.3
 209   23:20   73.5    43    4.7   176      7.8   872.3    0.00       0    89.2
 209   23:30   73.4    44    6.5   184      9.6   872.3    0.00       0    89.1
 209   23:40   73.2    45    6.2   185      8.5   872.3    0.00       0    88.9
 209   23:50   73.3    45    7.2   178     12.2   872.3    0.00       0    88.7
 210    0:00   73.5    44    5.7   181      8.2   872.3    0.00       0    88.6
 210    0:10   73.3    44    3.7   194      6.7   872.2    0.00       0    88.6
 210    0:20   73.0    44    2.3   210      3.9   872.2    0.00       0    88.5
 210    0:30   73.1    44    2.4   148      6.1   872.3    0.00       0    88.3
 210    0:40   73.0    44    0.2    11      1.5   872.3    0.00       0    88.2
 210    0:50   72.7    44    0.1   297      3.0   872.2    0.00       0    88.1
 210    1:00   72.6    45    0.8   297      2.9   872.2    0.00       0    87.9
 210    1:10   71.9    44    2.6    88      4.8   872.1    0.00       0    87.9
 210    1:20   71.5    46    4.9    84      8.2   872.1    0.00       0    87.7
 210    1:30   70.8    50    2.4    64      4.0   872.1    0.00       0    87.7
 210    1:40   70.5    51    1.8    37      3.6   872.1    0.00       0    87.6
 210    1:50   70.1    51    1.0    59      2.9   872.2    0.00       0    87.5
 210    2:00   69.7    51    0.0   103      0.8   872.2    0.00       0    87.5
 210    2:10   69.4    50    1.5    79      3.7   872.3    0.00       0    87.5
 210    2:20   69.1    52    3.9   118      5.0   872.3    0.00       0    87.4
 210    2:30   69.1    52    3.2   128      4.8   872.3    0.00       0    87.2
 210    2:40   68.7    52    2.7   134      3.4   872.4    0.00       0    87.1
 210    2:50   67.9    54    2.5   182      3.3   872.5    0.00       0    87.0
 210    3:00   67.4    56    1.5   186      3.3   872.5    0.00       0    86.9
 210    3:10   67.6    56    0.0     0      0.0   872.5    0.00       0    86.9
 210    3:20   67.7    56    0.4   250      2.5   872.6    0.00       0    86.8
 210    3:30   67.7    56    0.0     0      0.0   872.6    0.00       0    86.6
 210    3:40   67.2    55    0.0     0      0.0   872.6    0.00       0    86.4
 210    3:50   65.6    56    1.2     3      2.4   872.6    0.00       0    86.4
 210    4:00   64.5    58    1.6     5      3.1   872.6    0.00       0    86.3
 210    4:10   64.6    60    0.3    14      3.0   872.6    0.00       0    86.3
 210    4:20   65.1    59    1.2   264      3.5   872.6    0.00       0    86.2
 210    4:30   65.1    57    0.2   293      2.3   872.5    0.00       0    86.0
 210    4:40   64.7    57    0.3   299      1.9   872.5    0.00       0    85.9
 210    4:50   63.3    58    0.1   300      1.2   872.6    0.00       1    85.8
 210    5:00   62.2    59    0.2   164      2.0   872.6    0.00       3    85.7
 210    5:10   62.3    59    0.4   178      2.4   872.7    0.00       7    85.6
 210    5:20   62.0    59    1.8   154      4.2   872.7    0.00      23    85.5
 210    5:30   61.9    60    3.0   190      4.0   872.8    0.00      39    85.4
 210    5:40   63.6    59    2.5   214      3.4   872.7    0.00      61    85.1
 210    5:50   65.9    56    0.1   204      1.7   872.8    0.00      93    84.6
 210    6:00   67.9    52    0.0     0      0.0   872.8    0.00     116    84.1
 210    6:10   68.8    52    1.4   146      3.4   872.9    0.00     151    83.8
 210    6:20   69.6    53    2.1   142      3.1   872.9    0.00     187    83.4
 210    6:30   70.4    52    2.7   143      4.1   872.9    0.00     211    83.0
 210    6:40   71.5    50    3.3   128      4.5   872.8    0.00     268    82.7
 210    6:50   72.4    48    2.9   115      4.5   872.8    0.00     231    82.4
 210    7:00   74.0    44    2.7   146      4.5   872.8    0.00     279    82.3
 210    7:10   75.9    40    3.5   157      5.2   872.9    0.00     356    82.2
 210    7:20   76.8    38    3.1   148      5.8   872.9    0.00     328    82.0
 210    7:30   78.1    37    3.4   180      5.8   872.9    0.00     389    81.9
 210    7:40   81.2    32    3.0   180      5.6   872.8    0.00     441    81.8
 210    7:50   80.5    33    2.9   170      5.9   872.8    0.00     351    81.7
 210    8:00   79.6    33    3.8   172      6.2   872.7    0.00     227    81.8
 210    8:10   78.7    33    4.3   157      6.9   872.7    0.00     185    82.2
 210    8:20   77.9    34    2.9   146      4.8   872.6    0.00     179    82.5
 210    8:30   79.7    32    2.3   128      4.2   872.6    0.00     484    82.6
 210    8:40   82.5    29    3.1   158      5.3   872.7    0.00     583    82.4
 210    8:50   83.8    27    3.0   166      5.2   872.7    0.00     552    82.0
 210    9:00   84.1    29    4.1   156      7.4   872.7    0.00     775    81.8
 210    9:10   84.3    26    3.6   122      6.2   872.7    0.00     522    81.9
 210    9:20   82.9    25    3.8   124      7.1   872.7    0.00     452    82.1
 210    9:30   84.4    23    4.1    47      8.0   872.7    0.00     761    82.5
 210    9:40   85.7    22    4.4    28     10.4   872.7    0.00     836    82.6
 210    9:50   85.9    22    4.3    28      9.7   872.7    0.00     846    82.6
 210   10:00   86.3    22    8.8    13     13.2   872.6    0.00     895    82.8
 210   10:10   87.0    21    7.4   354     11.6   872.5    0.00     894    83.1
 210   10:20   88.5    20    5.4   359     12.4   872.4    0.00     821    83.3
 210   10:30   88.6    19   12.5     6     20.4   872.3    0.00     935    83.4
 210   10:40   88.7    18   12.5     8     19.0   872.2    0.00     960    83.7
 210   10:50   89.1    18   13.0    21     20.9   872.2    0.00     952    84.0
 210   11:00   89.0    18   11.0    16     16.4   872.0    0.00     906    84.3
 210   11:10   89.9    17   11.0    13     16.6   872.0    0.00     923    84.5
 210   11:20   89.5    17    9.0    14     17.0   871.9    0.00     977    84.7
 210   11:30   90.2    16   12.2     6     18.8   871.9    0.00     925    85.0
 210   11:40   89.7    18   11.8    30     17.2   871.8    0.00     697    85.2
 210   11:50   90.4    16   10.9    32     20.1   871.8    0.00     879    85.5
 210   12:00   90.5    16   11.9    24     19.5   871.8    0.00     963    85.7
 210   12:10   90.9    16   10.4    41     18.6   871.6    0.00    1037    86.0
 210   12:20   91.1    16   10.8    34     17.6   871.6    0.00    1018    86.1
 210   12:30   91.3    16    9.5    26     16.2   871.5    0.00     989    86.3
 210   12:40   92.8    15   10.5    33     15.8   871.4    0.00     994    86.6
 210   12:50   92.7    15   11.8    13     18.0   871.3    0.00    1022    86.7
 210   13:00   92.9    14    6.4     4     13.7   871.2    0.00    1014    87.0
 210   13:10   93.3    15   14.7    24     23.4   871.1    0.00     873    87.3
 210   13:20   92.3    15   11.3    22     20.4   871.0    0.00     767    87.7
 210   13:30   93.1    14   13.8    12     19.8   870.9    0.00     836    88.1
 210   13:40   90.9    15   10.9    16     18.4   870.8    0.00     262    88.7
 210   13:50   90.6    15    9.0    34     15.5   870.8    0.00     415    89.3
 210   14:00   90.7    15    7.8    12     11.9   870.8    0.00     346    89.7
 210   14:10   90.7    16    9.2    26     14.0   870.7    0.00     290    89.9
 210   14:20   89.6    18   10.1    23     14.3   870.6    0.00     272    90.2
 210   14:30   90.7    14    6.6     8     10.4   870.6    0.00     254    90.4
 210   14:40   90.5    15    5.8     8      8.0   870.5    0.00     231    90.5
 210   14:50   91.0    15    8.0     7     11.2   870.4    0.00     250    90.6
 210   15:00   91.1    14    7.5     4     11.9   870.3    0.00     283    90.7
 210   15:10   91.1    14    2.8   353      7.2   870.3    0.00     256    90.8
 210   15:20   91.4    14    2.5     3      7.6   870.3    0.00     219    90.9

Return to Mason Valley, Nevada graphs page.


Western Regional Climate Center,wrcc@dri.edu